createdAt,value
2023-04-23T00:04:53.136Z,3.20
2023-04-23T00:09:58.290Z,3.30
2023-04-23T00:15:02.110Z,3.78
2023-04-23T00:20:06.655Z,3.75
2023-04-23T00:25:11.182Z,3.55
2023-04-23T00:30:14.733Z,3.35
2023-04-23T00:35:18.959Z,3.72
2023-04-23T00:40:23.847Z,3.33
2023-04-23T00:45:27.321Z,3.38
2023-04-23T00:50:31.003Z,2.90
2023-04-23T00:55:36.459Z,3.15
2023-04-23T01:00:46.693Z,3.25
2023-04-23T01:05:51.016Z,3.50
2023-04-23T01:10:56.566Z,2.70
2023-04-23T01:15:59.834Z,2.80
2023-04-23T01:21:06.547Z,3.03
2023-04-23T01:26:11.028Z,3.13
2023-04-23T01:31:14.965Z,2.50
2023-04-23T01:36:20.588Z,3.22
2023-04-23T01:41:24.201Z,2.95
2023-04-23T01:46:29.183Z,2.90
2023-04-23T01:51:32.348Z,2.92
2023-04-23T01:56:36.661Z,3.25
2023-04-23T02:01:45.823Z,2.58
2023-04-23T02:06:51.965Z,2.83
2023-04-23T02:11:55.575Z,2.40
2023-04-23T02:16:58.693Z,2.13
2023-04-23T02:22:02.175Z,3.00
2023-04-23T02:27:06.015Z,2.50
2023-04-23T02:32:09.855Z,2.83
2023-04-23T02:37:13.614Z,2.30
2023-04-23T02:42:16.921Z,2.88
2023-04-23T02:47:20.238Z,2.50
2023-04-23T02:52:24.182Z,2.40
2023-04-23T02:57:27.330Z,2.50
2023-04-23T03:02:31.012Z,2.38
2023-04-23T03:07:34.763Z,2.63
2023-04-23T03:12:38.481Z,2.40
2023-04-23T03:17:42.843Z,2.65
2023-04-23T03:22:47.303Z,2.83
2023-04-23T03:27:51.512Z,2.40
2023-04-23T03:32:58.775Z,2.65
2023-04-23T03:38:03.024Z,2.53
2023-04-23T03:43:06.803Z,2.38
2023-04-23T03:48:30.506Z,2.50
2023-04-23T03:53:36.538Z,2.53
2023-04-23T03:58:58.708Z,2.60
2023-04-23T04:04:03.594Z,2.40
2023-04-23T04:09:09.111Z,2.50
2023-04-23T04:14:14.145Z,1.98
2023-04-23T04:19:17.464Z,2.28
2023-04-23T04:24:23.770Z,2.70
2023-04-23T04:29:28.909Z,2.10
2023-04-23T04:34:32.971Z,2.10
2023-04-23T04:39:36.280Z,1.80
2023-04-23T04:44:40.680Z,2.08
2023-04-23T04:49:43.832Z,2.15
2023-04-23T04:54:47.367Z,2.03
2023-04-23T04:59:50.909Z,2.25
2023-04-23T05:04:54.363Z,1.95
2023-04-23T05:09:58.381Z,2.17
2023-04-23T05:15:01.848Z,1.75
2023-04-23T05:20:06.531Z,2.45
2023-04-23T05:25:14.874Z,1.77
2023-04-23T05:30:18.945Z,2.17
2023-04-23T05:35:22.197Z,1.73
2023-04-23T05:40:28.241Z,2.40
2023-04-23T05:45:31.713Z,1.73
2023-04-23T05:50:36.030Z,2.15
2023-04-23T05:55:39.878Z,1.38
2023-04-23T06:00:43.911Z,3.13
2023-04-23T06:05:47.412Z,2.63
2023-04-23T06:10:50.691Z,2.08
2023-04-23T06:15:53.920Z,1.63
2023-04-23T06:20:58.323Z,1.50
2023-04-23T06:26:01.401Z,1.55
2023-04-23T06:31:05.988Z,1.45
2023-04-23T06:36:12.594Z,1.38
2023-04-23T06:41:16.527Z,2.30
2023-04-23T06:46:19.644Z,1.80
2023-04-23T06:51:27.305Z,2.10
2023-04-23T06:56:30.838Z,2.30
2023-04-23T07:01:35.609Z,1.88
2023-04-23T07:06:39.202Z,3.47
2023-04-23T07:11:43.075Z,1.92
2023-04-23T07:16:47.005Z,1.90
2023-04-23T07:21:50.147Z,1.80
2023-04-23T07:26:53.361Z,2.00
2023-04-23T07:31:56.885Z,1.73
2023-04-23T07:37:00.227Z,2.00
2023-04-23T07:42:03.918Z,2.88
2023-04-23T07:47:08.114Z,1.70
2023-04-23T07:52:12.097Z,2.10
2023-04-23T07:57:15.313Z,2.30
2023-04-23T08:02:23.955Z,2.33
2023-04-23T08:07:27.707Z,1.73
2023-04-23T08:12:31.603Z,1.63
2023-04-23T08:17:35.837Z,2.55
2023-04-23T08:22:39.850Z,1.77
2023-04-23T08:27:43.068Z,2.00
2023-04-23T08:32:55.691Z,3.05
2023-04-23T08:37:58.863Z,2.63
2023-04-23T08:43:03.693Z,3.38
2023-04-23T08:48:07.228Z,3.07
2023-04-23T08:53:11.148Z,3.17
2023-04-23T08:58:15.251Z,2.83
2023-04-23T09:03:21.141Z,3.05
2023-04-23T09:08:25.271Z,3.35
2023-04-23T09:13:32.178Z,3.08
2023-04-23T09:18:36.085Z,2.63
2023-04-23T09:23:41.626Z,3.08
2023-04-23T09:28:47.473Z,2.55
2023-04-23T09:33:53.841Z,2.88
2023-04-23T09:38:57.957Z,2.15
2023-04-23T09:44:01.068Z,2.35
2023-04-23T09:49:08.198Z,2.40
2023-04-23T09:54:21.951Z,2.60
2023-04-23T10:04:35.148Z,2.60
2023-04-23T10:09:39.367Z,2.65
2023-04-23T10:14:43.800Z,2.78
2023-04-23T10:19:49.659Z,2.83
2023-04-23T10:24:59.192Z,2.53
2023-04-23T10:30:05.431Z,2.10
2023-04-23T10:35:11.154Z,2.55
2023-04-23T10:40:19.599Z,2.85
2023-04-23T10:45:25.186Z,2.65
2023-04-23T10:50:31.389Z,2.75
2023-04-23T10:55:35.330Z,1.88
2023-04-23T11:00:47.250Z,2.47
2023-04-23T11:05:50.834Z,1.77
2023-04-23T11:10:59.941Z,1.90
2023-04-23T11:16:22.395Z,5.63
2023-04-23T11:22:03.955Z,1.95
2023-04-23T11:27:10.394Z,1.75
2023-04-23T11:32:17.796Z,2.05
2023-04-23T11:37:21.691Z,2.05
2023-04-23T11:42:26.208Z,2.17
2023-04-23T11:47:30.689Z,1.73
2023-04-23T11:52:34.207Z,2.03
2023-04-23T11:57:42.063Z,2.05
2023-04-23T12:03:00.108Z,2.30
2023-04-23T12:08:16.726Z,2.15
2023-04-23T12:13:24.476Z,2.45
2023-04-23T12:18:32.462Z,2.10
2023-04-23T12:23:38.760Z,2.50
2023-04-23T12:28:52.088Z,2.20
2023-04-23T12:34:17.746Z,1.95
2023-04-23T12:39:27.529Z,1.92
2023-04-23T12:44:33.763Z,1.92
2023-04-23T12:49:39.981Z,2.00
2023-04-23T12:54:45.190Z,1.65
2023-04-23T12:59:48.765Z,1.65
2023-04-23T13:04:52.712Z,1.70
2023-04-23T13:09:57.484Z,1.40
2023-04-23T13:15:01.223Z,1.67
2023-04-23T13:20:05.781Z,1.42
2023-04-23T13:25:09.631Z,1.57
2023-04-23T13:30:14.154Z,1.80
2023-04-23T13:35:17.948Z,1.70
2023-04-23T13:40:21.562Z,1.65
2023-04-23T13:45:26.739Z,1.58
2023-04-23T13:55:33.291Z,1.88
2023-04-23T14:00:36.785Z,1.50
2023-04-23T14:05:40.272Z,1.85
2023-04-23T14:10:44.482Z,1.70
2023-04-23T14:15:48.029Z,1.98
2023-04-23T14:20:52.307Z,1.80
2023-04-23T14:32:43.343Z,1.70
2023-04-23T14:37:47.160Z,1.73
2023-04-23T14:42:50.728Z,1.80
2023-04-23T14:47:54.302Z,1.90
2023-04-23T14:52:59.108Z,2.10
2023-04-23T14:58:02.452Z,1.92
2023-04-23T15:03:11.338Z,1.95
2023-04-23T15:08:15.077Z,2.15
2023-04-23T15:13:56.683Z,2.15
2023-04-23T15:19:03.279Z,2.53
2023-04-23T15:24:08.166Z,2.35
2023-04-23T15:29:14.042Z,1.90
2023-04-23T15:34:18.101Z,1.95
2023-04-23T15:39:22.479Z,2.00
2023-04-23T15:44:26.788Z,1.58
2023-04-23T15:49:30.664Z,2.10
2023-04-23T15:54:34.255Z,2.47
2023-04-23T15:59:37.848Z,2.20
2023-04-23T16:04:42.576Z,2.40
2023-04-23T16:09:46.985Z,2.27
2023-04-23T16:14:50.907Z,2.20
2023-04-23T16:19:54.522Z,2.42
2023-04-23T16:24:57.640Z,2.95
2023-04-23T16:30:01.856Z,3.38
2023-04-23T16:35:05.981Z,3.33
2023-04-23T16:40:10.632Z,2.80
2023-04-23T16:45:15.173Z,2.63
2023-04-23T16:50:18.978Z,2.80
2023-04-23T16:55:22.314Z,2.67
2023-04-23T17:00:25.986Z,2.83
2023-04-23T17:05:33.232Z,2.50
2023-04-23T17:10:37.132Z,7.57
2023-04-23T17:15:41.153Z,9.35
2023-04-23T17:20:45.122Z,11.35
2023-04-23T17:25:48.589Z,8.82
2023-04-23T17:30:54.084Z,7.68
2023-04-23T17:35:58.095Z,5.18
2023-04-23T17:41:01.420Z,4.55
2023-04-23T17:46:05.432Z,5.22
2023-04-23T17:51:10.435Z,6.22
2023-04-23T17:56:16.147Z,8.85
2023-04-23T18:01:19.841Z,11.60
2023-04-23T18:06:23.496Z,9.98
2023-04-23T18:11:27.042Z,8.98
2023-04-23T18:16:30.490Z,6.50
2023-04-23T18:21:34.393Z,5.68
2023-04-23T18:26:37.552Z,4.07
2023-04-23T18:31:41.767Z,2.83
2023-04-23T18:36:49.203Z,2.53
2023-04-23T18:41:53.152Z,2.33
2023-04-23T18:46:56.981Z,2.42
2023-04-23T18:52:00.872Z,2.60
2023-04-23T18:57:04.455Z,3.13
2023-04-23T19:02:09.098Z,3.88
2023-04-23T19:07:12.878Z,3.78
2023-04-23T19:12:17.435Z,2.88
2023-04-23T19:17:22.238Z,3.65
2023-04-23T19:22:26.066Z,2.85
2023-04-23T19:27:29.739Z,3.20
2023-04-23T19:32:36.780Z,3.30
2023-04-23T19:42:44.567Z,3.25
2023-04-23T19:47:48.539Z,3.08
2023-04-23T19:52:52.878Z,2.38
2023-04-23T19:57:57.427Z,2.97
2023-04-23T20:03:01.145Z,2.28
2023-04-23T20:08:11.521Z,2.85
2023-04-23T20:13:15.648Z,2.70
2023-04-23T20:18:19.408Z,2.85
2023-04-23T20:23:23.703Z,2.40
2023-04-23T20:28:28.273Z,2.67
2023-04-23T20:33:33.092Z,2.63
2023-04-23T20:38:38.316Z,2.88
2023-04-23T20:43:43.676Z,2.17
2023-04-23T20:48:50.415Z,2.55
2023-04-23T20:53:54.611Z,2.80
2023-04-23T20:58:58.586Z,2.65
2023-04-23T21:04:02.103Z,2.25
2023-04-23T21:09:06.085Z,2.40
2023-04-23T21:14:10.339Z,2.65
2023-04-23T21:19:13.827Z,2.53
2023-04-23T21:24:18.061Z,2.42
2023-04-23T21:29:21.621Z,2.35
2023-04-23T21:34:25.638Z,2.10
2023-04-23T21:39:29.153Z,2.83
2023-04-23T21:44:33.235Z,2.58
2023-04-23T21:49:37.279Z,2.20
2023-04-23T21:54:40.341Z,2.95
2023-04-23T21:59:44.073Z,2.92
2023-04-23T22:04:48.487Z,2.97
2023-04-23T22:09:51.689Z,2.85
2023-04-23T22:14:55.830Z,2.72
2023-04-23T22:19:59.849Z,3.03
2023-04-23T22:25:06.739Z,3.28
2023-04-23T22:30:11.776Z,2.88
2023-04-23T22:35:15.033Z,2.95
2023-04-23T22:40:19.272Z,3.15
2023-04-23T22:45:22.569Z,3.17
2023-04-23T22:50:27.176Z,3.22
2023-04-23T22:55:30.617Z,3.35
2023-04-23T23:00:34.503Z,2.80
2023-04-23T23:05:37.777Z,3.80
2023-04-23T23:10:42.239Z,3.33
2023-04-23T23:15:45.745Z,3.13
2023-04-23T23:20:49.351Z,3.47
2023-04-23T23:25:53.393Z,3.70
2023-04-23T23:30:58.059Z,3.42
2023-04-23T23:36:01.999Z,3.35
2023-04-23T23:41:06.137Z,2.92
2023-04-23T23:46:10.954Z,3.30
2023-04-23T23:51:14.492Z,3.10
2023-04-23T23:56:18.132Z,3.10
